Cornish, Maine
Current Conditions -  °F | °C
As of 1:54 PM on Friday 21 Nov 2014 (Local Time) from KIZG Reporting Station
Few Clouds Few Clouds  
Wind Chill: 18°   Ceiling: Unl
Heat Index: 28°   Visibility: 10mi
Dew Point:   Wind: 12mph
Humidity: 43%   Direction: 290°WNW
Pressure: 30.1"   Gusts: 24mph
Location:  43.8°N, 70.8°W
Report Text: KIZG 211854Z AUTO 29010G21KT 10SM FEW041 FEW049 M02/M13 A3010 RMK AO2 SLP201 T10221133
Loading
Personal Weather Stations






























Interactive Weather Map New forecast layout! Learn more

10-Day Weather Forecast

Advertisements
Track Severe Weather on mobile